This is the latest recevied weather packets stored in our database for station/object KJ4YLO. If no packets are shown the sender has not sent any weather packets the latest 10 day(s).
| Time | Temp. | Humidity | Pressure | Rain* | Wind** | Luminosity | Snow |
|---|---|---|---|---|---|---|---|
| 1777822326 | 16.11° C | 42% | 1021.8 hPa | 0 mm | - | 138 W/m² | - |
| 1777747472 | 17.22° C | 49% | 1013.1 hPa | 0 mm | - | 147 W/m² | - |
| 1777747169 | 17.22° C | 49% | 1013.5 hPa | 0 mm | - | 147 W/m² | - |
| 1777746865 | 17.22° C | 49% | 1013.1 hPa | 0 mm | - | 147 W/m² | - |
| 1777746561 | 17.78° C | 50% | 1013.5 hPa | 0 mm | - | 197 W/m² | - |
| 1777745349 | 17.78° C | 49% | 1013.5 hPa | 0 mm | - | 739 W/m² | - |
| 1777745046 | 17.78° C | 49% | 1013.8 hPa | 0 mm | - | 739 W/m² | - |
| 1777744743 | 17.78° C | 49% | 1013.8 hPa | 0 mm | - | 739 W/m² | - |
| 1777744436 | 17.22° C | 50% | 1013.8 hPa | 0 mm | - | 639 W/m² | - |
| 1777744133 | 17.22° C | 50% | 1013.8 hPa | 0 mm | - | 325 W/m² | - |
| 1777743830 | 17.78° C | 50% | 1013.8 hPa | 0 mm | - | 406 W/m² | - |
| 1777743527 | 17.22° C | 52% | 1013.8 hPa | 0 mm | - | 555 W/m² | - |
| 1777743224 | 17.22° C | 54% | 1014.1 hPa | 0 mm | - | 437 W/m² | - |
| 1777742922 | 17.22° C | 54% | 1014.1 hPa | 0 mm | - | 384 W/m² | - |
| 1777742619 | 16.67° C | 55% | 1013.8 hPa | 0 mm | - | 298 W/m² | - |
| 1777742314 | 17.22° C | 53% | 1014.1 hPa | 0 mm | - | 275 W/m² | - |
| 1777742011 | 17.22° C | 53% | 1014.1 hPa | 0 mm | - | 263 W/m² | - |
| 1777741709 | 17.22° C | 52% | 1014.1 hPa | 0 mm | - | 328 W/m² | - |
| 1777741405 | 17.22° C | 52% | 1014.1 hPa | 0 mm | - | 305 W/m² | - |
| 1777741101 | 17.22° C | 53% | 1014.1 hPa | 0 mm | - | 453 W/m² | - |
| 1777740798 | 17.22° C | 52% | 1014.5 hPa | 0 mm | - | 259 W/m² | - |
| 1777740495 | 18.33° C | 52% | 1014.1 hPa | 0 mm | - | 292 W/m² | - |
| 1777740192 | 17.78° C | 52% | 1014.5 hPa | 0 mm | - | 406 W/m² | - |
| 1777739888 | 17.78° C | 55% | 1014.5 hPa | 0 mm | - | 492 W/m² | - |
| 1777739584 | 17.22° C | 54% | 1014.5 hPa | 0 mm | - | 645 W/m² | - |
* Rain latest hour (hover to see other rain measurements)
** Current wind speed in m/s (hover to see current wind gust speed)